createdAt,value
2019-04-04T00:02:17.107Z,8.70
2019-04-04T00:04:48.073Z,8.70
2019-04-04T00:07:18.317Z,8.60
2019-04-04T00:09:48.498Z,8.60
2019-04-04T00:12:18.695Z,8.60
2019-04-04T00:14:49.030Z,8.60
2019-04-04T00:17:19.437Z,8.40
2019-04-04T00:19:50.014Z,8.30
2019-04-04T00:22:20.273Z,8.30
2019-04-04T00:24:50.516Z,8.30
2019-04-04T00:27:21.094Z,8.20
2019-04-04T00:29:51.262Z,8.20
2019-04-04T00:32:21.742Z,8.20
2019-04-04T00:34:52.285Z,8.10
2019-04-04T00:37:22.583Z,8.10
2019-04-04T00:39:52.776Z,8.10
2019-04-04T00:42:23.270Z,8.20
2019-04-04T00:45:06.260Z,8.10
2019-04-04T00:47:36.464Z,8.00
2019-04-04T00:50:07.021Z,7.90
2019-04-04T00:52:37.026Z,8.00
2019-04-04T00:55:07.208Z,7.90
2019-04-04T00:57:37.408Z,7.90
2019-04-04T01:00:08.695Z,7.90
2019-04-04T01:02:39.227Z,7.90
2019-04-04T01:05:09.775Z,7.80
2019-04-04T01:07:40.334Z,7.90
2019-04-04T01:10:10.586Z,8.00
2019-04-04T01:12:40.788Z,7.90
2019-04-04T01:15:10.958Z,7.80
2019-04-04T01:17:41.371Z,7.80
2019-04-04T01:20:11.731Z,7.90
2019-04-04T01:22:42.003Z,7.70
2019-04-04T01:25:12.179Z,7.60
2019-04-04T01:27:42.399Z,7.60
2019-04-04T01:30:12.875Z,7.60
2019-04-04T01:32:43.343Z,7.60
2019-04-04T01:35:13.753Z,7.50
2019-04-04T01:37:44.232Z,7.50
2019-04-04T01:40:15.658Z,7.60
2019-04-04T01:42:45.862Z,7.70
2019-04-04T01:45:16.314Z,7.60
2019-04-04T01:47:48.086Z,7.60
2019-04-04T01:50:18.608Z,7.70
2019-04-04T01:52:50.143Z,7.70
2019-04-04T01:55:20.594Z,7.70
2019-04-04T01:57:50.920Z,7.70
2019-04-04T02:00:21.109Z,7.70
2019-04-04T02:02:52.459Z,7.70
2019-04-04T02:05:26.663Z,7.70
2019-04-04T02:07:55.442Z,7.70
2019-04-04T02:10:25.695Z,7.70
2019-04-04T02:12:55.973Z,7.70
2019-04-04T02:15:26.142Z,7.80
2019-04-04T02:18:14.082Z,7.90
2019-04-04T02:20:44.261Z,7.80
2019-04-04T02:23:15.030Z,7.90
2019-04-04T02:25:45.891Z,7.70
2019-04-04T02:28:16.258Z,7.80
2019-04-04T02:30:48.494Z,7.70
2019-04-04T02:33:18.457Z,7.70
2019-04-04T02:35:48.703Z,7.70
2019-04-04T02:38:18.921Z,7.30
2019-04-04T02:40:49.100Z,6.90
2019-04-04T02:43:19.291Z,6.80
2019-04-04T02:45:49.628Z,6.40
2019-04-04T02:48:23.167Z,6.60
2019-04-04T02:50:51.987Z,6.80
2019-04-04T02:53:22.181Z,6.90
2019-04-04T02:55:52.365Z,7.00
2019-04-04T02:58:22.564Z,7.00
2019-04-04T03:00:52.740Z,7.10
2019-04-04T03:03:23.118Z,7.10
2019-04-04T03:05:53.299Z,7.10
2019-04-04T03:08:23.572Z,7.20
2019-04-04T03:10:54.018Z,7.30
2019-04-04T03:13:24.562Z,7.30
2019-04-04T03:15:55.043Z,7.30
2019-04-04T03:18:25.549Z,7.30
2019-04-04T03:20:55.897Z,7.30
2019-04-04T03:23:26.355Z,7.20
2019-04-04T03:25:56.812Z,7.30
2019-04-04T03:28:31.312Z,7.40
2019-04-04T03:31:02.737Z,7.30
2019-04-04T03:33:32.457Z,7.20
2019-04-04T03:36:03.384Z,7.10
2019-04-04T03:38:33.658Z,7.20
2019-04-04T03:41:04.217Z,7.20
2019-04-04T03:43:34.701Z,7.20
2019-04-04T03:46:05.117Z,7.20
2019-04-04T03:48:35.326Z,7.20
2019-04-04T03:51:05.574Z,7.20
2019-04-04T03:53:37.162Z,7.20
2019-04-04T03:56:08.785Z,7.20
2019-04-04T03:58:39.067Z,7.10
2019-04-04T04:01:12.073Z,7.10
2019-04-04T04:03:41.503Z,7.10
2019-04-04T04:06:11.674Z,7.20
2019-04-04T04:08:42.072Z,7.00
2019-04-04T04:11:12.407Z,7.00
2019-04-04T04:13:42.615Z,7.00
2019-04-04T04:16:13.147Z,6.90
2019-04-04T04:18:43.708Z,6.90
2019-04-04T04:21:13.897Z,6.90
2019-04-04T04:23:44.366Z,6.80
2019-04-04T04:26:14.631Z,6.80
2019-04-04T04:28:44.847Z,6.90
2019-04-04T04:31:15.709Z,6.80
2019-04-04T04:33:46.291Z,6.80
2019-04-04T04:36:16.790Z,6.80
2019-04-04T04:38:47.207Z,6.90
2019-04-04T04:41:20.414Z,6.80
2019-04-04T04:43:49.796Z,6.90
2019-04-04T04:46:20.045Z,6.80
2019-04-04T04:48:50.243Z,6.90
2019-04-04T04:51:20.496Z,6.90
2019-04-04T04:53:51.316Z,7.00
2019-04-04T04:56:22.149Z,7.00
2019-04-04T04:58:55.317Z,6.90
2019-04-04T05:01:24.318Z,7.00
2019-04-04T05:03:56.503Z,7.00
2019-04-04T05:06:26.620Z,7.10
2019-04-04T05:08:56.863Z,7.10
2019-04-04T05:11:28.236Z,7.10
2019-04-04T05:13:58.846Z,7.20
2019-04-04T05:16:29.175Z,7.20
2019-04-04T05:18:59.349Z,6.90
2019-04-04T05:21:29.549Z,6.80
2019-04-04T05:23:59.737Z,6.90
2019-04-04T05:26:29.943Z,7.00
2019-04-04T05:29:00.234Z,7.10
2019-04-04T05:31:30.514Z,7.00
2019-04-04T05:34:00.691Z,6.90
2019-04-04T05:36:30.896Z,7.10
2019-04-04T05:39:01.078Z,7.20
2019-04-04T05:41:31.978Z,7.10
2019-04-04T05:44:02.300Z,7.30
2019-04-04T05:46:32.492Z,7.50
2019-04-04T05:49:07.766Z,7.80
2019-04-04T05:51:36.166Z,7.60
2019-04-04T05:54:07.527Z,7.60
2019-04-04T05:56:38.540Z,7.70
2019-04-04T05:59:08.748Z,7.70
2019-04-04T06:01:39.007Z,7.80
2019-04-04T06:04:09.216Z,7.80
2019-04-04T06:06:39.468Z,7.80
2019-04-04T06:09:09.734Z,8.00
2019-04-04T06:11:39.907Z,8.10
2019-04-04T06:14:10.105Z,8.20
2019-04-04T06:16:40.287Z,8.30
2019-04-04T06:19:13.972Z,8.30
2019-04-04T06:21:42.611Z,8.30
2019-04-04T06:24:12.805Z,8.40
2019-04-04T06:26:42.982Z,8.50
2019-04-04T06:29:13.196Z,8.50
2019-04-04T06:31:45.055Z,8.70
2019-04-04T06:36:44.688Z,8.80
2019-04-04T06:39:15.054Z,9.10
2019-04-04T06:41:45.343Z,9.20
2019-04-04T06:44:15.582Z,9.30
2019-04-04T06:46:45.808Z,9.40
2019-04-04T06:49:16.031Z,9.60
2019-04-04T06:51:47.164Z,9.80
2019-04-04T06:54:16.781Z,9.80
2019-04-04T06:56:46.798Z,9.90
2019-04-04T06:59:18.402Z,9.90
2019-04-04T07:01:50.023Z,10.00
2019-04-04T07:04:20.494Z,10.00
2019-04-04T07:06:50.674Z,9.90
2019-04-04T07:09:20.846Z,9.90
2019-04-04T07:11:51.043Z,10.00
2019-04-04T07:14:21.291Z,10.30
2019-04-04T07:16:51.542Z,10.40
2019-04-04T07:19:21.733Z,10.70
2019-04-04T07:21:52.044Z,10.30
2019-04-04T07:24:22.303Z,10.30
2019-04-04T07:26:52.502Z,10.20
2019-04-04T07:29:22.973Z,10.40
2019-04-04T07:31:54.606Z,10.60
2019-04-04T07:34:24.785Z,10.80
2019-04-04T07:36:54.982Z,10.90
2019-04-04T07:39:25.163Z,10.80
2019-04-04T07:41:55.474Z,10.70
2019-04-04T07:44:25.646Z,10.70
2019-04-04T07:46:55.941Z,10.70
2019-04-04T07:49:26.127Z,10.90
2019-04-04T07:51:56.337Z,10.80
2019-04-04T07:54:26.534Z,10.90
2019-04-04T07:56:56.733Z,10.80
2019-04-04T07:59:26.991Z,10.50
2019-04-04T08:01:57.165Z,10.50
2019-04-04T08:04:27.438Z,10.60
2019-04-04T08:06:57.622Z,10.40
2019-04-04T08:09:27.828Z,10.50
2019-04-04T08:11:58.083Z,10.90
2019-04-04T08:14:28.279Z,11.00
2019-04-04T08:16:58.507Z,11.20
2019-04-04T08:19:28.799Z,11.10
2019-04-04T08:22:00.275Z,11.40
2019-04-04T08:24:30.520Z,11.50
2019-04-04T08:27:00.708Z,11.00
2019-04-04T08:29:30.915Z,10.80
2019-04-04T08:32:01.120Z,11.00
2019-04-04T08:34:31.390Z,11.10
2019-04-04T08:37:01.571Z,11.30
2019-04-04T08:39:31.765Z,11.30
2019-04-04T08:42:01.936Z,11.30
2019-04-04T08:44:32.143Z,11.00
2019-04-04T08:47:02.371Z,11.20
2019-04-04T08:49:32.693Z,11.30
2019-04-04T08:52:02.906Z,11.10
2019-04-04T08:54:33.185Z,11.20
2019-04-04T08:57:03.502Z,11.20
2019-04-04T08:59:33.782Z,11.60
2019-04-04T09:02:03.973Z,11.80
2019-04-04T09:04:34.338Z,12.20
2019-04-04T09:07:04.538Z,12.50
2019-04-04T09:09:34.981Z,13.00
2019-04-04T09:12:05.420Z,13.20
2019-04-04T09:14:35.635Z,13.20
2019-04-04T09:17:05.908Z,13.70
2019-04-04T09:19:36.275Z,13.70
2019-04-04T09:22:06.539Z,13.90
2019-04-04T09:24:36.871Z,14.60
2019-04-04T09:27:07.127Z,15.30
2019-04-04T09:29:37.328Z,15.60
2019-04-04T09:32:07.528Z,15.90
2019-04-04T09:34:37.882Z,15.70
2019-04-04T09:37:08.895Z,16.10
2019-04-04T09:39:38.678Z,16.70
2019-04-04T09:42:08.867Z,16.80
2019-04-04T09:44:39.109Z,16.70
2019-04-04T09:47:09.331Z,16.80
2019-04-04T09:49:39.554Z,17.10
2019-04-04T09:52:09.806Z,17.10
2019-04-04T09:54:40.145Z,16.60
2019-04-04T09:57:10.335Z,16.20
2019-04-04T09:59:40.510Z,16.40
2019-04-04T10:02:11.242Z,16.10
2019-04-04T10:04:41.665Z,16.10
2019-04-04T10:07:11.883Z,16.20
2019-04-04T10:09:42.059Z,16.10
2019-04-04T10:12:12.254Z,16.00
2019-04-04T10:14:42.535Z,16.10
2019-04-04T10:17:12.735Z,16.00
2019-04-04T10:19:43.087Z,15.60
2019-04-04T10:22:13.368Z,16.00
2019-04-04T10:24:43.567Z,15.90
2019-04-04T10:27:13.761Z,16.60
2019-04-04T10:29:43.960Z,16.60
2019-04-04T10:32:14.156Z,16.40
2019-04-04T10:34:44.348Z,16.50
2019-04-04T10:37:14.523Z,16.60
2019-04-04T10:39:44.735Z,17.40
2019-04-04T10:42:14.911Z,17.70
2019-04-04T10:44:45.110Z,18.60
2019-04-04T10:47:15.283Z,19.40
2019-04-04T10:49:45.502Z,19.00
2019-04-04T10:52:15.742Z,19.80
2019-04-04T10:54:45.982Z,19.80
2019-04-04T10:57:16.150Z,20.80
2019-04-04T10:59:46.627Z,20.70
2019-04-04T11:02:16.822Z,21.70
2019-04-04T11:04:47.198Z,21.20
2019-04-04T11:07:17.652Z,21.20
2019-04-04T11:09:48.037Z,20.40
2019-04-04T11:12:18.302Z,19.60
2019-04-04T11:14:48.477Z,18.70
2019-04-04T11:17:18.673Z,18.90
2019-04-04T11:19:49.047Z,19.10
2019-04-04T11:22:19.242Z,19.50
2019-04-04T11:24:49.414Z,20.30
2019-04-04T11:27:19.624Z,19.90
2019-04-04T11:29:49.804Z,18.50
2019-04-04T11:32:20.048Z,18.00
2019-04-04T11:34:53.787Z,17.70
2019-04-04T11:37:24.566Z,17.50
2019-04-04T11:39:55.261Z,17.10
2019-04-04T11:42:26.477Z,17.30
2019-04-04T11:44:56.607Z,18.40
2019-04-04T11:47:27.310Z,18.30
2019-04-04T11:49:58.794Z,18.00
2019-04-04T11:52:28.959Z,17.70
2019-04-04T11:55:00.135Z,17.70
2019-04-04T11:57:29.768Z,17.20
2019-04-04T11:59:59.767Z,17.00
2019-04-04T12:02:32.582Z,17.00
2019-04-04T12:05:04.938Z,16.70
2019-04-04T12:07:38.141Z,16.30
2019-04-04T12:10:08.273Z,15.80
2019-04-04T12:12:37.947Z,15.50
2019-04-04T12:15:08.384Z,15.30
2019-04-04T12:17:38.899Z,15.20
2019-04-04T12:20:09.330Z,15.00
2019-04-04T12:22:40.143Z,14.90
2019-04-04T12:25:11.078Z,14.60
2019-04-04T12:27:41.622Z,14.60
2019-04-04T12:30:11.882Z,14.90
2019-04-04T12:32:42.139Z,15.30
2019-04-04T12:35:24.607Z,15.00
2019-04-04T12:37:54.907Z,15.80
2019-04-04T12:40:25.098Z,15.60
2019-04-04T12:42:55.635Z,15.30
2019-04-04T12:45:25.878Z,15.00
2019-04-04T12:47:56.362Z,14.80
2019-04-04T12:50:30.042Z,14.70
2019-04-04T12:53:00.447Z,14.80
2019-04-04T12:55:31.071Z,14.60
2019-04-04T12:58:01.390Z,14.50
2019-04-04T13:00:31.631Z,14.50
2019-04-04T13:03:02.248Z,14.50
2019-04-04T13:05:34.219Z,14.10
2019-04-04T13:08:04.527Z,13.80
2019-04-04T13:10:34.698Z,13.70
2019-04-04T13:13:08.970Z,14.00
2019-04-04T13:15:41.143Z,14.60
2019-04-04T13:18:16.835Z,14.60
2019-04-04T13:20:47.739Z,14.60
2019-04-04T13:23:19.001Z,14.30
2019-04-04T13:25:49.430Z,14.10
2019-04-04T13:28:20.656Z,13.90
2019-04-04T13:30:51.081Z,14.20
2019-04-04T13:33:22.623Z,14.40
2019-04-04T13:35:54.003Z,14.50
2019-04-04T13:38:25.345Z,14.60
2019-04-04T13:40:55.976Z,14.60
2019-04-04T13:43:27.619Z,14.90
2019-04-04T13:45:59.190Z,14.50
2019-04-04T13:48:31.770Z,14.40
2019-04-04T13:51:02.706Z,14.10
2019-04-04T13:53:34.559Z,13.90
2019-04-04T13:56:04.979Z,13.80
2019-04-04T13:58:37.243Z,13.30
2019-04-04T14:01:07.665Z,13.10
2019-04-04T14:03:40.156Z,13.10
2019-04-04T14:06:11.095Z,13.10
2019-04-04T14:08:45.677Z,13.00
2019-04-04T14:11:17.380Z,12.60
2019-04-04T14:13:49.640Z,12.60
2019-04-04T14:16:20.231Z,12.60
2019-04-04T14:18:51.929Z,12.80
2019-04-04T14:21:22.156Z,12.80
2019-04-04T14:23:57.898Z,12.60
2019-04-04T14:26:29.286Z,12.60
2019-04-04T14:29:03.764Z,12.90
2019-04-04T14:31:32.144Z,12.80
2019-04-04T14:34:02.393Z,12.80
2019-04-04T14:36:32.582Z,12.80
2019-04-04T14:39:05.239Z,12.70
2019-04-04T14:41:35.490Z,12.90
2019-04-04T14:44:05.813Z,13.20
2019-04-04T14:46:37.108Z,12.90
2019-04-04T14:49:08.104Z,12.70
2019-04-04T14:51:38.287Z,12.70
2019-04-04T14:54:08.626Z,12.80
2019-04-04T14:56:38.797Z,12.80
2019-04-04T14:59:09.172Z,12.60
2019-04-04T15:01:39.530Z,12.50
2019-04-04T15:04:10.461Z,12.40
2019-04-04T15:06:41.808Z,12.20
2019-04-04T15:09:12.355Z,11.90
2019-04-04T15:11:42.774Z,12.20
2019-04-04T15:14:13.570Z,12.30
2019-04-04T15:16:43.858Z,12.30
2019-04-04T15:19:15.243Z,12.30
2019-04-04T15:21:45.441Z,12.20
2019-04-04T15:24:17.366Z,12.20
2019-04-04T15:26:48.016Z,12.20
2019-04-04T15:29:18.877Z,12.20
2019-04-04T15:31:50.924Z,12.40
2019-04-04T15:34:23.058Z,12.30
2019-04-04T15:36:53.766Z,12.30
2019-04-04T15:39:24.546Z,12.30
2019-04-04T15:41:56.154Z,12.00
2019-04-04T15:44:26.849Z,12.00
2019-04-04T15:46:57.588Z,12.00
2019-04-04T15:49:28.815Z,11.90
2019-04-04T15:51:59.687Z,11.90
2019-04-04T15:54:30.791Z,11.70
2019-04-04T15:57:00.984Z,11.70
2019-04-04T15:59:31.627Z,11.70
2019-04-04T16:02:02.266Z,11.60
2019-04-04T16:04:33.261Z,11.20
2019-04-04T16:07:05.231Z,11.30
2019-04-04T16:09:36.752Z,11.20
2019-04-04T16:12:06.250Z,11.40
2019-04-04T16:14:36.271Z,11.30
2019-04-04T16:17:06.467Z,11.40
2019-04-04T16:19:36.686Z,11.60
2019-04-04T16:22:06.945Z,11.70
2019-04-04T16:24:38.137Z,11.60
2019-04-04T16:27:08.353Z,11.60
2019-04-04T16:29:38.694Z,11.50
2019-04-04T16:32:09.003Z,11.40
2019-04-04T16:34:39.225Z,11.20
2019-04-04T16:37:09.630Z,11.10
2019-04-04T16:39:39.908Z,11.20
2019-04-04T16:42:10.098Z,11.30
2019-04-04T16:44:40.377Z,11.50
2019-04-04T16:47:10.646Z,11.60
2019-04-04T16:49:40.871Z,11.40
2019-04-04T16:52:13.983Z,11.30
2019-04-04T16:54:44.183Z,11.20
2019-04-04T16:57:14.443Z,11.30
2019-04-04T16:59:44.714Z,11.30
2019-04-04T17:02:14.892Z,11.60
2019-04-04T17:04:45.098Z,11.50
2019-04-04T17:07:24.466Z,11.60
2019-04-04T17:09:54.667Z,11.60
2019-04-04T17:12:24.848Z,11.70
2019-04-04T17:14:55.144Z,11.50
2019-04-04T17:17:25.501Z,11.40
2019-04-04T17:19:55.732Z,11.20
2019-04-04T17:22:29.111Z,11.40
2019-04-04T17:24:58.211Z,11.50
2019-04-04T17:27:28.527Z,11.50
2019-04-04T17:29:59.039Z,11.60
2019-04-04T17:32:29.420Z,11.60
2019-04-04T17:34:59.712Z,11.60
2019-04-04T17:37:30.469Z,11.40
2019-04-04T17:40:01.123Z,11.30
2019-04-04T17:42:33.494Z,11.40
2019-04-04T17:45:07.349Z,11.40
2019-04-04T17:47:37.594Z,11.30
2019-04-04T17:50:09.705Z,11.20
2019-04-04T17:52:40.131Z,11.20
2019-04-04T17:55:10.878Z,11.30
2019-04-04T17:57:42.354Z,11.30
2019-04-04T18:00:12.612Z,11.20
2019-04-04T18:02:43.335Z,11.10
2019-04-04T18:05:13.532Z,11.00
2019-04-04T18:07:43.817Z,10.90
2019-04-04T18:10:14.657Z,11.00
2019-04-04T18:12:44.967Z,10.80
2019-04-04T18:15:15.157Z,10.70
2019-04-04T18:17:45.473Z,10.60
2019-04-04T18:20:15.690Z,10.60
2019-04-04T18:22:45.984Z,10.60
2019-04-04T18:25:16.253Z,10.60
2019-04-04T18:27:46.875Z,10.60
2019-04-04T18:30:16.889Z,10.40
2019-04-04T18:32:47.250Z,10.30
2019-04-04T18:35:17.630Z,10.10
2019-04-04T18:37:48.194Z,10.10
2019-04-04T18:40:18.522Z,10.20
2019-04-04T18:42:53.499Z,10.20
2019-04-04T18:45:20.642Z,10.00
2019-04-04T18:47:50.972Z,10.00
2019-04-04T18:50:21.190Z,10.20
2019-04-04T18:52:51.377Z,10.30
2019-04-04T18:55:22.134Z,10.10
2019-04-04T18:57:52.330Z,10.00
2019-04-04T19:00:22.551Z,10.20
2019-04-04T19:02:52.735Z,10.10
2019-04-04T19:05:22.950Z,10.10
2019-04-04T19:07:53.223Z,10.10
2019-04-04T19:10:23.448Z,10.10
2019-04-04T19:13:04.848Z,10.20
2019-04-04T19:15:25.546Z,10.20
2019-04-04T19:17:58.436Z,10.00
2019-04-04T19:20:28.753Z,10.00
2019-04-04T19:22:58.970Z,10.20
2019-04-04T19:25:29.290Z,10.20
2019-04-04T19:28:02.606Z,10.30
2019-04-04T19:30:35.651Z,10.30
2019-04-04T19:33:05.838Z,10.20
2019-04-04T19:35:36.051Z,10.10
2019-04-04T19:38:06.315Z,10.10
2019-04-04T19:40:36.784Z,10.00
2019-04-04T19:43:17.503Z,10.00
2019-04-04T19:45:39.564Z,10.00
2019-04-04T19:48:09.938Z,10.00
2019-04-04T19:50:40.186Z,10.20
2019-04-04T19:53:10.396Z,10.10
2019-04-04T19:55:42.435Z,10.10
2019-04-04T19:58:12.686Z,10.00
2019-04-04T20:00:42.877Z,9.80
2019-04-04T20:03:13.159Z,10.00
2019-04-04T20:05:44.614Z,10.00
2019-04-04T20:08:15.095Z,9.80
2019-04-04T20:10:45.305Z,9.80
2019-04-04T20:13:15.614Z,9.80
2019-04-04T20:15:45.874Z,9.70
2019-04-04T20:18:16.081Z,9.70
2019-04-04T20:20:46.278Z,10.00
2019-04-04T20:23:16.482Z,9.90
2019-04-04T20:25:46.795Z,9.90
2019-04-04T20:28:17.148Z,9.90
2019-04-04T20:30:48.988Z,10.00
2019-04-04T20:33:19.190Z,10.00
2019-04-04T20:35:49.399Z,9.90
2019-04-04T20:38:19.626Z,9.80
2019-04-04T20:40:49.977Z,9.90
2019-04-04T20:43:20.190Z,9.70
2019-04-04T20:45:50.482Z,9.70
2019-04-04T20:48:20.730Z,9.70
2019-04-04T20:50:51.221Z,9.50
2019-04-04T20:53:22.243Z,9.40
2019-04-04T20:55:52.221Z,9.20
2019-04-04T20:58:22.233Z,9.20
2019-04-04T21:00:52.432Z,8.90
2019-04-04T21:03:22.806Z,9.00
2019-04-04T21:05:52.994Z,9.20
2019-04-04T21:08:23.193Z,9.20
2019-04-04T21:10:53.374Z,9.30
2019-04-04T21:13:23.567Z,9.30
2019-04-04T21:15:53.763Z,9.20
2019-04-04T21:18:24.139Z,9.30
2019-04-04T21:20:54.328Z,9.50
2019-04-04T21:23:24.515Z,9.40
2019-04-04T21:25:54.711Z,9.30
2019-04-04T21:28:25.272Z,9.20
2019-04-04T21:30:55.279Z,9.20
2019-04-04T21:33:25.453Z,9.20
2019-04-04T21:35:55.635Z,9.30
2019-04-04T21:38:25.816Z,9.20
2019-04-04T21:40:56.243Z,9.20
2019-04-04T21:43:26.416Z,9.30
2019-04-04T21:45:56.715Z,9.30
2019-04-04T21:48:26.888Z,9.30
2019-04-04T21:50:57.078Z,9.30
2019-04-04T21:53:27.275Z,9.30
2019-04-04T21:55:57.574Z,9.30
2019-04-04T21:58:27.753Z,9.20
2019-04-04T22:00:57.971Z,9.20
2019-04-04T22:03:28.227Z,9.00
2019-04-04T22:05:58.489Z,9.00
2019-04-04T22:08:28.686Z,8.90
2019-04-04T22:10:58.925Z,8.80
2019-04-04T22:13:29.130Z,8.80
2019-04-04T22:15:59.422Z,8.80
2019-04-04T22:18:29.631Z,8.90
2019-04-04T22:20:59.867Z,8.70
2019-04-04T22:23:30.059Z,8.70
2019-04-04T22:26:00.237Z,8.70
2019-04-04T22:28:30.516Z,8.70
2019-04-04T22:31:00.754Z,8.70
2019-04-04T22:33:30.943Z,8.40
2019-04-04T22:36:01.134Z,8.40
2019-04-04T22:38:31.327Z,8.40
2019-04-04T22:41:18.490Z,8.40
2019-04-04T22:43:48.677Z,8.40
2019-04-04T22:46:18.847Z,8.30
2019-04-04T22:48:49.039Z,8.20
2019-04-04T22:51:19.227Z,8.20
2019-04-04T22:53:49.413Z,8.30
2019-04-04T22:56:19.601Z,8.30
2019-04-04T22:58:49.778Z,8.20
2019-04-04T23:01:19.971Z,8.40
2019-04-04T23:03:51.314Z,8.30
2019-04-04T23:06:21.511Z,8.40
2019-04-04T23:08:51.678Z,8.50
2019-04-04T23:11:22.058Z,8.50
2019-04-04T23:13:52.231Z,8.50
2019-04-04T23:16:22.460Z,8.50
2019-04-04T23:18:52.639Z,8.60
2019-04-04T23:21:23.847Z,8.60
2019-04-04T23:23:54.024Z,8.70
2019-04-04T23:26:24.316Z,8.70
2019-04-04T23:28:54.603Z,8.70
2019-04-04T23:31:24.791Z,8.80
2019-04-04T23:33:54.990Z,8.70
2019-04-04T23:36:34.811Z,8.70
2019-04-04T23:38:57.042Z,8.70
2019-04-04T23:41:27.210Z,8.70
2019-04-04T23:43:57.406Z,8.60
2019-04-04T23:46:27.591Z,8.60
2019-04-04T23:48:57.782Z,8.50
2019-04-04T23:51:27.963Z,8.40
2019-04-04T23:53:58.157Z,8.40
2019-04-04T23:56:47.155Z,8.30
2019-04-04T23:59:17.159Z,8.30
